Hlavní strana
METAR-TAF:

METAR-TAF

Letiště :

Kastamonu, Turecko

zeměpisná šířka: 41-19-01N, zeměpisná délka: 33-47-46E, výška: 1073 m

Aktuální stav počasí

Zpráva byla vytvořena před 1 hodinou a 1 minutami, v 23:50 UTC
vítr z různých směrů 1 kt
Teplota 10°C
Vlhkost vzduchu 93%
Tlak 1019 hPa
Viditelnost 10 km a více
Polojasno ve výšce 4000 ft

METAR: LTAL 282350Z VRB01KT 9999 SCT040 10/09 Q1019

Čas: 03:51 (00:51 UTC)

Předpověď počasí

Zpráva byla vytvořena před 2 hodinami a 11 minutami, v 22:40 UTC
Předpověď platná od 29 v 00 UTC do 29 v 09 UTC
Severovýchodní vítr 8 kt
Viditelnost 10 km a více
Polojasno ve výšce 4000 ft

TAF: LTAL 282240Z 2900/2909 05008KT 9999 SCT040

Stav a předpovědi počasí z více než 4 000 letišť (zprávy METAR a TAF).

Červené a žluté tečky na mapě představují dostupné meteorologické stanice.

Když kurzor umístíte na tečku, zobrazí se název stanice.

Pak kliknutím zobrazíte stav a předpověď počasí.

Chcete-li změnit mapu, kliknutím na zelené tlačítko se znaménkem +mapu přiblížíte, kliknutím na zelené tlačítko se znaménkem – mapu oddálíte a kliknutím na zelené šipky přejdete na sousední mapy.


METAR-TAF: